Time;durP1;ratioP1;P1;durP2;ratioP2;P2;SDS_P1;SDS_P2;PMS_P1;PMS_P2;Temp;Humidity;BMP_temperature;BMP_pressure;BME280_temperature;BME280_humidity;BME280_pressure;Samples;Min_cycle;Max_cycle;Signal;HPM_P1;HPM_P2
2022/06/03 00:02:43;;;;;;;6.50;4.90;;;12.40;99.90;;;;;;5055218;28;20029;-81
2022/06/03 00:05:28;;;;;;;9.20;5.78;;;12.30;99.90;;;;;;5070513;28;20021;-82
2022/06/03 00:08:12;;;;;;;11.43;5.72;;;12.30;99.90;;;;;;5053108;28;20048;-81
2022/06/03 00:10:57;;;;;;;7.93;5.47;;;12.20;99.90;;;;;;5053193;28;20139;-81
2022/06/03 00:14:04;;;;;;;8.02;5.45;;;12.20;99.90;;;;;;5053057;28;20021;-82
2022/06/03 00:16:45;;;;;;;10.48;5.53;;;12.00;99.90;;;;;;5046981;28;20033;-81
2022/06/03 00:19:42;;;;;;;6.40;4.93;;;12.10;99.90;;;;;;5052879;28;20390;-81
2022/06/03 00:22:40;;;;;;;5.75;5.18;;;12.00;99.90;;;;;;5034610;28;20021;-80
2022/06/03 00:25:24;;;;;;;6.10;4.75;;;11.80;99.90;;;;;;5029689;28;20120;-82
2022/06/03 00:27:59;;;;;;;7.20;5.65;;;11.80;99.90;;;;;;5034755;28;20036;-81
2022/06/03 00:30:33;;;;;;;6.50;5.07;;;11.80;99.90;;;;;;5034585;28;20082;-82
2022/06/03 00:33:04;;;;;;;8.70;5.13;;;11.80;99.90;;;;;;5052466;28;20048;-82
2022/06/03 00:36:02;;;;;;;7.68;5.05;;;11.70;99.90;;;;;;5034983;28;20064;-81
2022/06/03 00:38:46;;;;;;;6.60;5.15;;;11.60;99.90;;;;;;5051669;28;20067;-81
2022/06/03 00:41:34;;;;;;;7.53;5.93;;;11.70;99.90;;;;;;5052769;28;20036;-81
2022/06/03 00:44:11;;;;;;;7.03;4.90;;;11.60;99.90;;;;;;5034410;28;20497;-81
2022/06/03 00:47:02;;;;;;;7.70;5.50;;;11.80;99.90;;;;;;5034505;28;20473;-81
2022/06/03 00:50:07;;;;;;;9.50;4.97;;;11.90;99.90;;;;;;5052178;28;20029;-81
2022/06/03 00:53:05;;;;;;;8.65;5.95;;;11.90;99.90;;;;;;5051971;28;20024;-81
2022/06/03 00:55:59;;;;;;;5.68;5.07;;;11.80;99.90;;;;;;5035744;28;20153;-81
2022/06/03 00:58:49;;;;;;;7.32;4.65;;;11.80;99.90;;;;;;5051918;28;20028;-81
2022/06/03 01:01:48;;;;;;;9.00;5.07;;;11.70;99.90;;;;;;5034008;28;20028;-81
2022/06/03 01:04:38;;;;;;;5.80;4.35;;;12.00;99.90;;;;;;5051778;28;20017;-82
2022/06/03 01:07:09;;;;;;;9.80;5.30;;;12.00;99.90;;;;;;5033333;28;20111;-81
2022/06/03 01:09:53;;;;;;;4.65;4.22;;;12.10;99.90;;;;;;5033978;28;21055;-82
2022/06/03 01:12:35;;;;;;;7.32;4.90;;;12.10;99.90;;;;;;5051879;28;20490;-81
2022/06/03 01:15:06;;;;;;;6.22;4.45;;;12.10;99.90;;;;;;5050355;28;20036;-81
2022/06/03 01:17:42;;;;;;;6.15;4.22;;;12.10;99.90;;;;;;5051859;28;20029;-82
2022/06/03 01:20:16;;;;;;;8.52;5.18;;;12.00;99.90;;;;;;5034152;28;20056;-80
2022/06/03 01:23:09;;;;;;;6.68;4.28;;;12.00;99.90;;;;;;5033702;28;20079;-81
2022/06/03 01:25:38;;;;;;;7.60;4.85;;;12.00;99.90;;;;;;5033649;28;20033;-81
2022/06/03 01:28:22;;;;;;;5.97;4.68;;;12.10;99.90;;;;;;5033210;28;20516;-81
2022/06/03 01:31:03;;;;;;;5.47;4.68;;;12.00;99.90;;;;;;5033623;28;20024;-81
2022/06/03 01:33:53;;;;;;;6.30;4.28;;;12.10;99.90;;;;;;5033584;28;20037;-81
2022/06/03 01:36:40;;;;;;;9.75;4.45;;;12.10;99.90;;;;;;5063541;28;20039;-81
2022/06/03 01:39:30;;;;;;;5.05;3.95;;;12.20;99.90;;;;;;5053119;28;20078;-81
2022/06/03 01:42:17;;;;;;;6.40;4.70;;;12.20;99.90;;;;;;5053824;28;20565;-81
2022/06/03 01:45:22;;;;;;;6.65;4.25;;;12.20;99.90;;;;;;5053904;28;20021;-81
2022/06/03 01:48:03;;;;;;;6.68;4.15;;;12.20;99.90;;;;;;5053268;28;20036;-81
2022/06/03 01:50:40;;;;;;;8.30;4.50;;;12.20;99.90;;;;;;5071569;28;20013;-82
2022/06/03 01:53:34;;;;;;;7.53;4.28;;;12.20;99.90;;;;;;5053630;28;20020;-80
2022/06/03 01:56:38;;;;;;;4.13;3.47;;;12.10;99.90;;;;;;5071322;28;20024;-81
2022/06/03 01:59:06;;;;;;;5.05;3.97;;;12.10;99.90;;;;;;5062825;28;20102;-82
2022/06/03 02:01:47;;;;;;;8.27;4.18;;;12.00;99.90;;;;;;5053527;28;20016;-82
2022/06/03 02:04:25;;;;;;;8.50;3.75;;;11.90;99.90;;;;;;5053493;28;20504;-82
2022/06/03 02:07:03;;;;;;;5.68;3.67;;;11.90;99.90;;;;;;5070928;28;20485;-83
2022/06/03 02:09:35;;;;;;;4.70;3.58;;;11.90;99.90;;;;;;5071259;28;20028;-82
2022/06/03 02:12:06;;;;;;;4.15;3.65;;;11.90;99.90;;;;;;5053452;28;20028;-82
2022/06/03 02:14:44;;;;;;;4.25;3.35;;;11.80;99.90;;;;;;5071259;28;20025;-81
2022/06/03 02:17:17;;;;;;;4.10;3.70;;;11.70;99.90;;;;;;5053217;28;20489;-82
2022/06/03 02:20:04;;;;;;;4.25;3.35;;;11.70;99.90;;;;;;5072071;28;20021;-82
2022/06/03 02:23:03;;;;;;;4.55;3.15;;;11.60;99.90;;;;;;5074925;28;20485;-82
2022/06/03 02:25:35;;;;;;;4.05;3.10;;;11.50;99.90;;;;;;5057079;28;20051;-82
2022/06/03 02:28:22;;;;;;;3.40;3.10;;;11.50;99.90;;;;;;5056796;28;20485;-81
2022/06/03 02:31:14;;;;;;;3.55;3.17;;;11.40;99.90;;;;;;5074673;28;20117;-81
2022/06/03 02:34:20;;;;;;;3.90;2.80;;;11.30;99.90;;;;;;5057109;28;20477;-81
2022/06/03 02:37:09;;;;;;;4.43;3.60;;;11.10;99.90;;;;;;5056040;28;20485;-82
2022/06/03 02:39:55;;;;;;;3.78;3.40;;;11.00;99.90;;;;;;5056808;28;20036;-82
2022/06/03 02:42:51;;;;;;;4.10;2.97;;;11.00;99.90;;;;;;5056797;28;20024;-82
2022/06/03 02:45:23;;;;;;;3.85;3.28;;;10.90;99.90;;;;;;5056469;28;20170;-81
2022/06/03 02:48:16;;;;;;;4.30;3.42;;;10.90;99.90;;;;;;5056617;28;20037;-82
2022/06/03 02:50:44;;;;;;;3.72;3.28;;;10.80;99.90;;;;;;5056754;28;20021;-82
2022/06/03 02:53:37;;;;;;;5.45;3.78;;;10.70;99.90;;;;;;5074003;28;20020;-81
2022/06/03 02:56:40;;;;;;;4.35;3.78;;;10.70;99.90;;;;;;5074312;28;20025;-81
2022/06/03 02:59:21;;;;;;;5.30;4.28;;;10.70;99.90;;;;;;5074458;28;20067;-82
2022/06/03 03:02:16;;;;;;;4.97;4.10;;;10.70;99.90;;;;;;5074697;28;20102;-82
2022/06/03 03:05:08;;;;;;;4.95;3.83;;;10.60;99.90;;;;;;5054736;28;20116;-82
2022/06/03 03:07:50;;;;;;;4.97;3.63;;;10.60;99.90;;;;;;5053375;28;20596;-82
2022/06/03 03:10:24;;;;;;;5.80;4.07;;;10.50;99.90;;;;;;5074414;28;20044;-82
2022/06/03 03:12:50;;;;;;;6.22;3.50;;;10.60;99.90;;;;;;5056397;28;20390;-82
2022/06/03 03:15:51;;;;;;;6.15;3.85;;;10.50;99.90;;;;;;5049205;28;20111;-82
2022/06/03 03:18:29;;;;;;;5.90;3.55;;;10.40;99.90;;;;;;5036243;28;20089;-81
2022/06/03 03:21:13;;;;;;;6.72;4.15;;;10.30;99.90;;;;;;5054070;28;20057;-82
2022/06/03 03:23:44;;;;;;;5.88;4.07;;;10.20;99.90;;;;;;5053928;28;20048;-81
2022/06/03 03:26:24;;;;;;;4.95;3.58;;;10.20;99.90;;;;;;5053807;28;20359;-81
2022/06/03 03:28:53;;;;;;;4.43;3.90;;;10.10;99.90;;;;;;5053498;28;20037;-81
2022/06/03 03:31:43;;;;;;;6.25;4.10;;;10.10;99.90;;;;;;5035787;28;20039;-82
2022/06/03 03:37:11;;;;;;;3.95;3.55;;;10.00;99.90;;;;;;5030784;28;20049;-82
2022/06/03 03:39:36;;;;;;;7.07;4.55;;;10.00;99.90;;;;;;5032495;28;20068;-82
2022/06/03 03:42:25;;;;;;;9.10;4.75;;;10.00;99.90;;;;;;5032464;28;20156;-82
2022/06/03 03:45:23;;;;;;;7.47;4.40;;;10.10;99.90;;;;;;5033644;28;20540;-82
2022/06/03 03:48:10;;;;;;;9.18;4.82;;;10.20;99.90;;;;;;5033863;28;20370;-82
2022/06/03 03:50:46;;;;;;;7.72;4.80;;;10.20;99.90;;;;;;5033326;28;20474;-82
2022/06/03 03:53:52;;;;;;;5.78;3.97;;;10.20;99.90;;;;;;5033375;28;20485;-82
2022/06/03 03:56:18;;;;;;;9.82;5.07;;;10.20;99.90;;;;;;5029459;28;20041;-82
2022/06/03 03:59:05;;;;;;;8.07;5.13;;;10.20;99.90;;;;;;5032149;28;20024;-82
2022/06/03 04:01:41;;;;;;;6.30;4.40;;;10.20;99.90;;;;;;5033435;28;20448;-82
2022/06/03 04:04:42;;;;;;;6.38;4.00;;;10.20;99.90;;;;;;5033172;28;20022;-82
2022/06/03 04:07:35;;;;;;;8.68;3.90;;;10.20;99.90;;;;;;5015073;28;20057;-82
2022/06/03 04:10:18;;;;;;;6.30;4.15;;;10.30;99.90;;;;;;5033239;28;20022;-82
2022/06/03 04:13:06;;;;;;;5.50;3.67;;;10.30;99.90;;;;;;5033159;28;20164;-82
2022/06/03 04:16:11;;;;;;;10.98;5.07;;;10.50;99.90;;;;;;5032888;28;20032;-82
2022/06/03 04:18:57;;;;;;;6.32;4.03;;;10.60;99.90;;;;;;5032990;28;20025;-82
2022/06/03 04:21:51;;;;;;;6.97;4.03;;;10.70;99.90;;;;;;5032445;28;20510;-82
2022/06/03 04:24:31;;;;;;;7.45;4.28;;;10.90;99.90;;;;;;5032908;28;21038;-82
2022/06/03 04:27:15;;;;;;;5.30;3.63;;;10.90;99.90;;;;;;5032926;28;20060;-82
2022/06/03 04:29:46;;;;;;;8.75;3.35;;;11.00;99.90;;;;;;5032687;28;20033;-82
2022/06/03 04:32:33;;;;;;;5.50;3.55;;;11.10;99.90;;;;;;5032823;28;20056;-82
2022/06/03 04:35:23;;;;;;;5.82;3.78;;;11.10;99.90;;;;;;5053059;23;20485;-83
2022/06/03 04:38:29;;;;;;;4.20;3.60;;;11.20;99.90;;;;;;5052633;28;20040;-81
2022/06/03 04:40:55;;;;;;;5.95;3.78;;;11.20;99.90;;;;;;5052852;28;20170;-83
2022/06/03 04:43:45;;;;;;;5.15;3.00;;;11.20;99.90;;;;;;5050512;28;20112;-82
2022/06/03 04:46:32;;;;;;;5.78;3.35;;;11.30;99.90;;;;;;5052469;28;20025;-82
2022/06/03 04:49:04;;;;;;;4.63;3.47;;;11.40;99.90;;;;;;5050896;28;20033;-82
2022/06/03 04:51:39;;;;;;;6.82;3.97;;;11.40;99.90;;;;;;5050952;28;20057;-83
2022/06/03 04:54:35;;;;;;;6.20;3.25;;;11.50;99.90;;;;;;5050948;28;20426;-82
2022/06/03 04:57:03;;;;;;;6.50;3.78;;;11.50;99.90;;;;;;5050781;28;20043;-82
2022/06/03 05:00:00;;;;;;;5.78;3.83;;;11.60;99.90;;;;;;5052151;28;20032;-82
2022/06/03 05:03:22;;;;;;;6.35;4.07;;;11.70;99.90;;;;;;5052134;28;20028;-82
2022/06/03 05:05:55;;;;;;;6.22;3.67;;;11.80;99.90;;;;;;5040407;28;20021;-83
2022/06/03 05:08:43;;;;;;;10.68;3.50;;;12.00;99.90;;;;;;5030921;28;20043;-83
2022/06/03 05:11:25;;;;;;;6.45;3.72;;;12.00;99.90;;;;;;5030938;28;20036;-83
2022/06/03 05:14:28;;;;;;;7.35;3.47;;;12.10;99.90;;;;;;5032145;28;20029;-82
2022/06/03 05:17:39;;;;;;;6.53;3.63;;;12.20;99.90;;;;;;5032209;28;20068;-82
2022/06/03 05:20:16;;;;;;;6.82;4.18;;;12.40;99.90;;;;;;5019972;28;20088;-82
2022/06/03 05:22:45;;;;;;;8.10;3.83;;;12.40;99.90;;;;;;5031766;28;20025;-82
2022/06/03 05:25:38;;;;;;;5.45;4.00;;;12.50;99.90;;;;;;5031796;28;20461;-82
2022/06/03 05:28:35;;;;;;;7.07;4.00;;;12.50;99.90;;;;;;5031799;28;20030;-82
2022/06/03 05:31:31;;;;;;;5.97;3.80;;;12.60;99.90;;;;;;5031877;28;20023;-82
2022/06/03 05:34:19;;;;;;;8.15;4.22;;;12.70;99.90;;;;;;5047455;28;20083;-82
2022/06/03 05:37:18;;;;;;;7.18;4.20;;;12.70;99.90;;;;;;5044468;23;20037;-82
2022/06/03 05:40:03;;;;;;;5.65;4.13;;;12.60;99.90;;;;;;5031723;28;20087;-82
2022/06/03 05:42:31;;;;;;;6.22;3.70;;;12.60;99.90;;;;;;5030321;28;20033;-82
2022/06/03 05:45:34;;;;;;;6.10;4.10;;;12.70;99.90;;;;;;5031413;28;20040;-82
2022/06/03 05:48:18;;;;;;;9.60;4.60;;;12.70;99.90;;;;;;5031601;28;20057;-82
2022/06/03 05:51:02;;;;;;;6.20;4.10;;;12.70;99.90;;;;;;5031745;28;20017;-82
2022/06/03 05:53:55;;;;;;;5.55;4.15;;;12.70;99.90;;;;;;5031677;28;20108;-82
2022/06/03 05:56:52;;;;;;;7.97;4.45;;;12.90;99.90;;;;;;5035523;28;20101;-82
2022/06/03 05:59:52;;;;;;;6.50;4.30;;;12.90;99.90;;;;;;5035488;28;20029;-82
2022/06/03 06:02:23;;;;;;;6.53;4.47;;;13.10;99.90;;;;;;5035638;28;20079;-82
2022/06/03 06:05:20;;;;;;;6.38;4.30;;;13.10;99.90;;;;;;5035484;28;20025;-82
2022/06/03 06:08:22;;;;;;;5.10;3.85;;;13.20;99.90;;;;;;5015363;28;20029;-82
2022/06/03 06:11:15;;;;;;;4.60;4.15;;;13.30;99.90;;;;;;5015659;28;20032;-82
2022/06/03 06:13:59;;;;;;;5.15;4.28;;;13.40;99.90;;;;;;5015667;28;20087;-82
2022/06/03 06:16:40;;;;;;;7.75;4.47;;;13.50;99.90;;;;;;5027459;28;20394;-82
2022/06/03 06:19:28;;;;;;;11.05;4.30;;;13.50;99.90;;;;;;5035005;28;20025;-82
2022/06/03 06:22:09;;;;;;;6.32;4.45;;;13.70;99.90;;;;;;5034946;28;20022;-82
2022/06/03 06:24:35;;;;;;;7.20;4.53;;;14.30;99.90;;;;;;5034955;28;20035;-82
2022/06/03 06:27:25;;;;;;;5.95;4.43;;;14.80;99.90;;;;;;5035249;28;20437;-82
2022/06/03 06:30:03;;;;;;;6.57;4.50;;;15.40;99.90;;;;;;5035181;28;20061;-82
2022/06/03 06:32:34;;;;;;;6.40;4.05;;;15.90;99.90;;;;;;5034895;28;20498;-82
2022/06/03 06:35:25;;;;;;;6.07;3.90;;;16.20;99.90;;;;;;5056461;22;20045;-83
2022/06/03 06:37:59;;;;;;;7.30;4.88;;;16.20;99.90;;;;;;5013873;28;20030;-82
2022/06/03 06:40:31;;;;;;;8.15;4.93;;;16.20;99.90;;;;;;5014177;28;20026;-82
2022/06/03 06:43:08;;;;;;;6.25;4.80;;;15.90;99.90;;;;;;5013929;28;20061;-82
2022/06/03 06:45:53;;;;;;;7.15;5.03;;;15.80;99.90;;;;;;4997262;28;20109;-83
2022/06/03 06:48:38;;;;;;;7.13;5.05;;;15.70;99.90;;;;;;5014691;28;20030;-82
2022/06/03 06:51:12;;;;;;;7.38;4.72;;;15.70;99.90;;;;;;5014561;28;20407;-83
2022/06/03 06:53:53;;;;;;;6.45;4.63;;;15.80;99.90;;;;;;4997057;28;20033;-82
2022/06/03 06:56:34;;;;;;;7.13;4.28;;;16.00;99.90;;;;;;5014642;28;20041;-82
2022/06/03 06:59:20;;;;;;;8.32;5.22;;;16.20;99.90;;;;;;5014918;28;20026;-83
2022/06/03 07:01:59;;;;;;;7.65;4.63;;;16.50;99.90;;;;;;5014590;28;20030;-82
2022/06/03 07:04:33;;;;;;;9.65;4.15;;;16.80;99.90;;;;;;5013216;28;20022;-83
2022/06/03 07:06:59;;;;;;;5.88;4.68;;;17.30;99.90;;;;;;5043395;28;20021;-83
2022/06/03 07:10:06;;;;;;;8.07;4.53;;;17.70;99.90;;;;;;5054198;28;20052;-82
2022/06/03 07:12:42;;;;;;;8.70;4.90;;;17.90;99.90;;;;;;5054075;28;20466;-83
2022/06/03 07:15:25;;;;;;;10.63;4.43;;;18.30;99.90;;;;;;5035367;28;20036;-83
2022/06/03 07:21:06;;;;;;;8.07;3.72;;;18.80;99.90;;;;;;5054051;28;20393;-83
2022/06/03 07:23:55;;;;;;;8.50;4.00;;;18.80;99.90;;;;;;5036372;28;20025;-83
2022/06/03 07:26:55;;;;;;;9.13;4.60;;;19.10;99.90;;;;;;5035988;28;20083;-83
2022/06/03 07:29:34;;;;;;;8.80;4.53;;;19.10;99.90;;;;;;5021416;28;20494;-83
2022/06/03 07:32:11;;;;;;;9.23;4.40;;;19.10;99.90;;;;;;5035924;28;20025;-84
2022/06/03 07:34:48;;;;;;;7.47;4.35;;;18.80;99.90;;;;;;5036528;28;20029;-84
2022/06/03 07:37:24;;;;;;;7.63;4.53;;;18.80;99.90;;;;;;5053422;28;20086;-83
2022/06/03 07:40:01;;;;;;;7.95;4.18;;;18.70;99.90;;;;;;5035628;28;20033;-84
2022/06/03 07:43:06;;;;;;;7.43;5.10;;;18.80;99.90;;;;;;5035670;28;20017;-83
2022/06/03 07:45:51;;;;;;;11.48;4.32;;;19.10;99.90;;;;;;5035939;28;20079;-84
2022/06/03 07:48:21;;;;;;;6.60;4.32;;;19.40;99.90;;;;;;5035718;28;20124;-84
2022/06/03 07:51:05;;;;;;;8.10;4.55;;;19.70;99.90;;;;;;5035479;28;20097;-84
2022/06/03 07:53:45;;;;;;;4.97;3.70;;;19.90;99.90;;;;;;5053924;28;20024;-84
2022/06/03 07:56:17;;;;;;;7.68;4.10;;;20.20;98.60;;;;;;5035460;28;20039;-84
2022/06/03 07:58:45;;;;;;;5.53;3.92;;;20.20;99.60;;;;;;5035412;28;20025;-84
2022/06/03 08:01:33;;;;;;;6.00;4.72;;;20.10;99.90;;;;;;5053302;28;20586;-83
2022/06/03 08:03:59;;;;;;;5.35;3.97;;;19.90;97.00;;;;;;5053189;28;20053;-84
2022/06/03 08:06:30;;;;;;;6.50;4.07;;;20.00;99.90;;;;;;5035047;28;20366;-84
2022/06/03 08:11:43;;;;;;;5.80;4.20;;;20.10;91.80;;;;;;5053711;28;20059;-83
2022/06/03 08:14:09;;;;;;;5.20;3.60;;;20.30;92.60;;;;;;5035340;28;20063;-84
2022/06/03 08:16:41;;;;;;;4.50;3.53;;;20.30;93.50;;;;;;5035110;28;20045;-83
2022/06/03 08:19:26;;;;;;;8.57;3.60;;;20.40;98.10;;;;;;5052328;28;20107;-83
2022/06/03 08:22:01;;;;;;;5.07;3.08;;;20.30;97.20;;;;;;5034918;28;20075;-84
2022/06/03 08:24:35;;;;;;;6.28;3.65;;;20.20;99.90;;;;;;5035224;28;20112;-84
2022/06/03 08:27:24;;;;;;;4.13;3.15;;;20.00;98.90;;;;;;5034971;28;20496;-85
2022/06/03 08:30:07;;;;;;;6.40;4.15;;;20.10;99.80;;;;;;5034714;28;20097;-84
2022/06/03 08:32:40;;;;;;;4.75;3.50;;;20.50;99.90;;;;;;5034997;28;20024;-84
2022/06/03 08:35:14;;;;;;;3.83;3.25;;;21.00;91.40;;;;;;5050732;22;20681;-82
2022/06/03 08:37:51;;;;;;;3.83;2.90;;;21.80;92.90;;;;;;4995488;28;20495;-82
2022/06/03 08:40:35;;;;;;;3.10;2.80;;;23.00;83.60;;;;;;5012955;28;20105;-82
2022/06/03 08:43:10;;;;;;;4.38;2.80;;;23.50;71.70;;;;;;5012771;28;20025;-82
2022/06/03 08:46:03;;;;;;;5.78;2.80;;;24.40;69.80;;;;;;5012792;28;20060;-82
2022/06/03 08:48:41;;;;;;;1.95;1.85;;;25.50;65.00;;;;;;5012590;28;20037;-80
2022/06/03 08:51:26;;;;;;;4.55;2.15;;;26.50;65.20;;;;;;5012589;28;20465;-79
2022/06/03 08:54:06;;;;;;;2.97;1.90;;;27.40;57.50;;;;;;5012580;28;20025;-79
2022/06/03 08:56:38;;;;;;;2.05;1.52;;;28.00;53.40;;;;;;5012376;28;20450;-80
2022/06/03 08:59:30;;;;;;;3.05;2.22;;;28.30;53.70;;;;;;5012710;28;20109;-80
2022/06/03 09:02:02;;;;;;;1.55;1.23;;;28.40;47.70;;;;;;5012672;28;20075;-80
2022/06/03 09:04:51;;;;;;;2.00;1.27;;;28.90;46.60;;;;;;4994963;28;20443;-80
2022/06/03 09:07:24;;;;;;;1.30;0.98;;;28.80;44.20;;;;;;5045894;28;20033;-80
2022/06/03 09:10:04;;;;;;;2.30;0.88;;;29.50;43.70;;;;;;5051847;28;20033;-80
2022/06/03 09:12:33;;;;;;;2.00;0.75;;;30.10;41.70;;;;;;5052285;28;20066;-80
2022/06/03 09:15:05;;;;;;;0.88;0.70;;;30.30;39.00;;;;;;5050751;28;20079;-80
2022/06/03 09:17:51;;;;;;;0.82;0.70;;;30.50;38.20;;;;;;5051700;28;20023;-80
2022/06/03 09:20:34;;;;;;;3.95;0.70;;;31.10;38.20;;;;;;5051731;28;20024;-80
2022/06/03 09:23:08;;;;;;;0.82;0.52;;;30.90;38.20;;;;;;5051711;28;20017;-80
2022/06/03 09:25:37;;;;;;;1.13;0.73;;;31.80;38.00;;;;;;5051612;28;20032;-80
2022/06/03 09:28:06;;;;;;;0.85;0.50;;;32.10;36.80;;;;;;5051486;28;20035;-79
2022/06/03 09:30:38;;;;;;;1.80;0.50;;;31.40;32.50;;;;;;5051781;28;20025;-80
2022/06/03 09:33:07;;;;;;;1.20;0.60;;;31.30;32.90;;;;;;5051508;28;20019;-80
2022/06/03 09:35:36;;;;;;;2.25;0.75;;;31.70;32.60;;;;;;5066292;22;20053;-87
2022/06/03 09:38:05;;;;;;;0.45;0.30;;;32.40;34.40;;;;;;5014712;28;20021;-88
2022/06/03 09:40:44;;;;;;;0.63;0.57;;;32.70;30.70;;;;;;5014672;28;20470;-86
2022/06/03 09:43:21;;;;;;;0.70;0.70;;;32.70;31.80;;;;;;5014837;28;20022;-88
2022/06/03 09:45:51;;;;;;;0.70;0.70;;;32.10;31.20;;;;;;5014596;28;20029;-88
2022/06/03 09:48:20;;;;;;;0.85;0.50;;;32.10;32.40;;;;;;5014848;28;20029;-87
2022/06/03 09:50:51;;;;;;;1.60;0.60;;;32.00;33.70;;;;;;5015029;28;20055;-88
2022/06/03 09:53:19;;;;;;;0.93;0.52;;;32.10;31.40;;;;;;5014769;28;20028;-88
2022/06/03 09:55:55;;;;;;;0.50;0.35;;;32.50;30.90;;;;;;5014969;28;20036;-87
2022/06/03 09:58:29;;;;;;;0.65;0.40;;;32.60;29.90;;;;;;5014638;28;20368;-87
2022/06/03 10:00:57;;;;;;;0.60;0.35;;;33.30;30.90;;;;;;5015053;28;20075;-87
2022/06/03 10:03:25;;;;;;;0.47;0.38;;;33.10;32.00;;;;;;5014960;28;20532;-86
2022/06/03 10:05:54;;;;;;;1.92;0.60;;;34.10;29.90;;;;;;5014825;28;20026;-88
2022/06/03 10:08:24;;;;;;;0.80;0.68;;;35.00;30.70;;;;;;5015473;28;20040;-88
2022/06/03 10:13:39;;;;;;;0.88;0.70;;;35.00;29.10;;;;;;5032666;28;20133;-88
2022/06/03 10:16:07;;;;;;;0.55;0.55;;;34.00;28.60;;;;;;5014614;28;20502;-88
2022/06/03 10:18:49;;;;;;;1.48;0.65;;;33.90;30.30;;;;;;5015163;28;20048;-87
2022/06/03 10:21:14;;;;;;;;;;;34.20;31.70;;;;;;5014768;28;20028;-88
2022/06/03 10:23:46;;;;;;;0.60;0.60;;;33.60;28.40;;;;;;5014792;28;20012;-87
2022/06/03 10:26:33;;;;;;;1.00;0.68;;;34.10;29.60;;;;;;5014595;28;20053;-85
2022/06/03 10:29:08;;;;;;;1.00;0.55;;;34.80;30.90;;;;;;5014951;28;20045;-88
2022/06/03 10:31:36;;;;;;;1.92;0.60;;;34.80;31.80;;;;;;5014474;28;20026;-87
2022/06/03 10:34:09;;;;;;;0.70;0.70;;;34.60;29.30;;;;;;5032036;28;20028;-86
2022/06/03 10:36:39;;;;;;;0.60;0.50;;;35.20;29.90;;;;;;5053252;23;20505;-79
2022/06/03 10:39:06;;;;;;;1.08;0.70;;;35.70;29.30;;;;;;5050816;28;20115;-79
2022/06/03 10:41:40;;;;;;;0.60;0.60;;;34.80;30.10;;;;;;5052900;28;20053;-80
2022/06/03 10:44:25;;;;;;;1.83;0.85;;;35.90;30.80;;;;;;5054797;28;20526;-80
2022/06/03 10:47:13;;;;;;;1.27;0.85;;;36.00;34.20;;;;;;5053200;28;20409;-80
2022/06/03 10:49:54;;;;;;;1.63;1.00;;;37.00;31.10;;;;;;5044802;28;20052;-79
2022/06/03 11:01:13;;;;;;;1.05;0.70;;;36.10;30.00;;;;;;5054422;28;20503;-80
2022/06/03 11:03:43;;;;;;;1.45;0.60;;;36.50;30.80;;;;;;5054116;28;20074;-80
2022/06/03 11:06:14;;;;;;;1.50;0.70;;;36.80;29.40;;;;;;5054028;28;20052;-80
2022/06/03 11:08:51;;;;;;;1.20;0.63;;;37.00;28.70;;;;;;5054263;28;20084;-80
2022/06/03 11:11:36;;;;;;;0.68;0.68;;;36.60;28.50;;;;;;5054323;28;20466;-80
2022/06/03 11:14:32;;;;;;;2.13;0.80;;;36.00;28.20;;;;;;5054196;28;20029;-80
2022/06/03 11:17:07;;;;;;;0.85;0.70;;;36.70;29.90;;;;;;5053970;28;20029;-80
2022/06/03 11:19:45;;;;;;;2.05;0.80;;;37.20;31.80;;;;;;5053967;28;20107;-80
2022/06/03 11:22:23;;;;;;;1.58;0.88;;;37.80;30.00;;;;;;5053821;28;20017;-80
2022/06/03 11:25:11;;;;;;;1.95;0.82;;;36.70;29.70;;;;;;5053685;28;20029;-80
2022/06/03 11:28:05;;;;;;;1.73;0.73;;;36.30;29.50;;;;;;5053778;28;20482;-80
2022/06/03 11:30:59;;;;;;;1.05;0.93;;;37.10;29.90;;;;;;5053886;28;20032;-80
2022/06/03 11:33:36;;;;;;;0.60;0.60;;;36.00;32.00;;;;;;5053961;28;20051;-80
2022/06/03 11:36:11;;;;;;;1.90;0.90;;;37.30;34.90;;;;;;5065854;22;20046;-88
2022/06/03 11:38:58;;;;;;;1.52;0.90;;;37.90;31.90;;;;;;5033741;28;20544;-89
2022/06/03 11:41:40;;;;;;;1.20;0.60;;;37.40;30.00;;;;;;5033966;28;20108;-89
2022/06/03 11:44:18;;;;;;;2.05;0.65;;;37.80;30.10;;;;;;5033882;28;20387;-88
2022/06/03 11:46:54;;;;;;;1.73;0.50;;;38.70;34.30;;;;;;5033916;28;20022;-89
2022/06/03 11:49:21;;;;;;;2.75;0.80;;;39.60;27.80;;;;;;5034102;28;20482;-92
2022/06/03 11:51:47;;;;;;;1.02;0.70;;;38.40;27.10;;;;;;5033481;28;20018;-91
2022/06/03 11:54:17;;;;;;;2.35;0.82;;;37.50;28.40;;;;;;5033822;28;20387;-90
2022/06/03 11:56:45;;;;;;;2.83;0.95;;;36.60;28.80;;;;;;5016078;28;20517;-88
2022/06/03 11:59:44;;;;;;;1.08;0.80;;;36.60;29.20;;;;;;5033812;28;20021;-88
2022/06/03 12:02:27;;;;;;;0.47;0.47;;;36.40;28.50;;;;;;5033705;28;20029;-90
2022/06/03 12:05:03;;;;;;;1.48;0.80;;;37.70;28.40;;;;;;5033424;28;20068;-91
2022/06/03 12:07:50;;;;;;;1.48;1.08;;;38.30;27.50;;;;;;5033225;28;20027;-90
2022/06/03 12:10:28;;;;;;;1.35;0.82;;;39.10;28.70;;;;;;5033748;28;20032;-90
2022/06/03 12:13:19;;;;;;;0.82;0.70;;;38.70;28.10;;;;;;5033504;28;20067;-90
2022/06/03 12:16:10;;;;;;;3.28;1.20;;;38.20;27.20;;;;;;5033329;28;20072;-89
2022/06/03 12:18:37;;;;;;;0.70;0.70;;;37.50;28.60;;;;;;5033480;28;20109;-90
2022/06/03 12:21:14;;;;;;;1.48;1.05;;;37.90;28.30;;;;;;5033330;28;20091;-91
2022/06/03 12:23:43;;;;;;;0.98;0.60;;;37.80;27.80;;;;;;5033379;28;20067;-91
2022/06/03 12:26:29;;;;;;;1.23;0.63;;;38.70;26.60;;;;;;5015465;28;20029;-89
2022/06/03 12:29:07;;;;;;;0.80;0.50;;;39.00;26.30;;;;;;5015284;28;20083;-91
2022/06/03 12:31:45;;;;;;;0.90;0.70;;;39.90;26.30;;;;;;5033081;28;20025;-90
2022/06/03 12:34:26;;;;;;;2.03;1.55;;;41.20;28.20;;;;;;5033096;28;20033;-90
2022/06/03 12:37:00;;;;;;;1.90;1.02;;;39.20;26.70;;;;;;5049109;23;20084;-82
2022/06/03 12:39:33;;;;;;;1.38;1.02;;;37.70;28.60;;;;;;4976015;28;20026;-82
2022/06/03 12:42:03;;;;;;;2.05;1.00;;;38.80;29.20;;;;;;4993291;28;20030;-82
2022/06/03 12:44:49;;;;;;;1.77;0.80;;;38.40;27.60;;;;;;4993109;28;20033;-81
2022/06/03 12:47:26;;;;;;;0.80;0.77;;;37.90;27.00;;;;;;4973706;28;20081;-82
2022/06/03 12:49:54;;;;;;;2.13;0.80;;;36.90;27.80;;;;;;4973757;28;20492;-81
2022/06/03 12:52:25;;;;;;;1.90;1.08;;;35.10;28.60;;;;;;4972195;28;20027;-82
2022/06/03 12:55:05;;;;;;;1.70;1.08;;;34.80;31.90;;;;;;4973759;28;20058;-81
2022/06/03 12:57:51;;;;;;;1.20;1.00;;;36.60;31.50;;;;;;4973380;28;20030;-82
2022/06/03 13:00:32;;;;;;;1.90;1.00;;;35.70;31.90;;;;;;4973293;28;20027;-81
2022/06/03 13:03:24;;;;;;;;;;;33.20;34.10;;;;;;4973431;28;20041;-82
2022/06/03 13:05:50;;;;;;;;;;;32.40;35.40;;;;;;4972159;28;19917;-81
2022/06/03 13:08:28;;;;;;;1.33;1.10;;;33.20;35.50;;;;;;4994058;28;19913;-82
2022/06/03 13:10:59;;;;;;;2.55;1.45;;;33.70;36.40;;;;;;5012402;28;20025;-83
2022/06/03 13:13:28;;;;;;;1.65;1.15;;;33.50;33.50;;;;;;5012354;28;20033;-82
2022/06/03 13:15:54;;;;;;;1.40;1.30;;;35.10;34.70;;;;;;5012151;28;20021;-81
2022/06/03 13:18:41;;;;;;;3.08;1.30;;;35.50;32.40;;;;;;5012278;28;20029;-82
2022/06/03 13:21:06;;;;;;;1.88;1.27;;;35.00;33.20;;;;;;5012061;28;20022;-82
2022/06/03 13:23:37;;;;;;;3.38;1.40;;;34.40;35.90;;;;;;5012295;28;20153;-81
2022/06/03 13:26:24;;;;;;;2.60;1.67;;;32.10;34.40;;;;;;5012189;28;20026;-84
2022/06/03 13:28:50;;;;;;;1.48;1.38;;;30.30;36.40;;;;;;5001857;28;20077;-85
2022/06/03 13:31:23;;;;;;;2.67;1.40;;;29.60;42.30;;;;;;5011624;28;20050;-83
2022/06/03 13:34:08;;;;;;;2.38;1.58;;;27.90;40.80;;;;;;5011958;28;20079;-83
2022/06/03 13:36:45;;;;;;;2.28;1.30;;;28.00;44.70;;;;;;5012110;28;20034;-83
2022/06/03 13:39:33;;;;;;;2.33;1.35;;;27.90;44.30;;;;;;5011849;28;20018;-83
2022/06/03 13:44:55;;;;;;;1.85;1.33;;;29.00;41.00;;;;;;5011978;28;20080;-83
2022/06/03 13:47:20;;;;;;;;;;;29.50;40.80;;;;;;5012085;28;20034;-84
2022/06/03 13:50:10;;;;;;;3.78;1.70;;;29.70;40.60;;;;;;5011786;28;19918;-83
2022/06/03 13:52:40;;;;;;;1.52;1.25;;;28.80;40.40;;;;;;5011537;28;20105;-83
2022/06/03 13:55:21;;;;;;;2.70;1.48;;;29.10;40.90;;;;;;5011475;28;20471;-83
2022/06/03 13:57:58;;;;;;;1.90;1.25;;;29.00;41.40;;;;;;5011782;28;20034;-83
2022/06/03 14:00:26;;;;;;;2.65;1.60;;;29.20;44.70;;;;;;5011888;28;20033;-82
2022/06/03 14:03:08;;;;;;;3.42;1.35;;;28.50;41.30;;;;;;5011710;28;20030;-83
2022/06/03 14:05:52;;;;;;;4.30;1.35;;;28.90;41.20;;;;;;5011123;28;20018;-83
2022/06/03 14:08:24;;;;;;;2.80;1.50;;;29.10;41.30;;;;;;5011584;28;20038;-80
2022/06/03 14:11:06;;;;;;;2.55;1.58;;;27.60;40.00;;;;;;5011789;28;20026;-83
2022/06/03 14:13:37;;;;;;;1.73;1.30;;;26.50;44.70;;;;;;5011391;28;20054;-83
2022/06/03 14:16:10;;;;;;;1.25;1.15;;;26.80;44.40;;;;;;5014170;28;20105;-83
2022/06/03 14:19:01;;;;;;;1.77;1.60;;;26.70;45.90;;;;;;5015409;28;20081;-83
2022/06/03 14:21:39;;;;;;;1.67;1.30;;;26.40;43.70;;;;;;5015285;28;20104;-82
2022/06/03 14:24:14;;;;;;;1.67;1.40;;;26.00;45.60;;;;;;5015333;28;20109;-83